Time;durP1;ratioP1;P1;durP2;ratioP2;P2;SDS_P1;SDS_P2;PMS_P1;PMS_P2;Temp;Humidity;BMP_temperature;BMP_pressure;BME280_temperature;BME280_humidity;BME280_pressure;Samples;Min_cycle;Max_cycle;Signal;HPM_P1;HPM_P2
2021/11/08 00:01:55;;;;;;;;;;;332.80;2048.00;;;;;;5075024;28;20362;-66
2021/11/08 00:04:21;;;;;;;;;;;332.80;2022.40;;;;;;5075087;28;20235;-67
2021/11/08 00:06:46;;;;;;;;;;;332.80;2022.40;;;;;;5075294;28;19911;-67
2021/11/08 00:09:13;;;;;;;;;;;332.80;2048.00;;;;;;5074813;28;19904;-67
2021/11/08 00:11:40;;;;;;;;;;;308.10;1996.80;;;;;;5074744;28;20005;-67
2021/11/08 00:14:09;;;;;;;;;;;332.80;2048.00;;;;;;5074433;28;19904;-67
2021/11/08 00:16:47;;;;;;;;;;;332.80;2022.40;;;;;;5074272;28;20396;-65
2021/11/08 00:19:35;;;;;;;;;;;332.80;2022.40;;;;;;5074573;28;19905;-67
2021/11/08 00:22:02;;;;;;;;;;;332.80;2022.40;;;;;;5075047;28;20235;-67
2021/11/08 00:24:28;;;;;;;;;;;332.80;2022.40;;;;;;5074445;28;19904;-67
2021/11/08 00:26:54;;;;;;;;;;;332.80;2022.40;;;;;;5074303;28;19915;-67
2021/11/08 00:29:19;;;;;;;;;;;332.90;2022.40;;;;;;5074679;28;19904;-64
2021/11/08 00:31:45;;;;;;;;;;;332.80;2022.40;;;;;;5074782;28;19995;-64
2021/11/08 00:34:11;;;;;;;;;;;332.80;2048.00;;;;;;5075029;28;19947;-67
2021/11/08 00:36:37;;;;;;;;;;;332.80;2048.00;;;;;;5074272;28;19974;-63
2021/11/08 00:39:03;;;;;;;;;;;332.80;2022.40;;;;;;5074429;28;19908;-67
2021/11/08 00:41:29;;;;;;;;;;;332.80;2022.40;;;;;;5074205;28;19904;-67
2021/11/08 00:43:54;;;;;;;;;;;332.80;2048.00;;;;;;5074352;28;20011;-67
2021/11/08 00:46:20;;;;;;;;;;;332.80;2022.40;;;;;;5074331;28;19927;-68
2021/11/08 00:48:46;;;;;;;;;;;332.90;2048.00;;;;;;5074145;28;19924;-64
2021/11/08 00:51:14;;;;;;;;;;;332.80;2048.00;;;;;;5074293;28;19953;-66
2021/11/08 00:53:39;;;;;;;;;;;332.80;2022.40;;;;;;5074017;28;19904;-68
2021/11/08 00:56:10;;;;;;;;;;;332.80;2048.00;;;;;;5073410;28;19913;-66
2021/11/08 00:58:38;;;;;;;;;;;332.80;2022.40;;;;;;5073953;28;19904;-67
2021/11/08 01:01:06;;;;;;;;;;;332.80;2022.40;;;;;;5074087;28;20338;-67
2021/11/08 01:03:33;;;;;;;;;;;332.80;2048.00;;;;;;5074108;28;19908;-66
2021/11/08 01:06:00;;;;;;;;;;;332.80;2022.40;;;;;;5074214;28;20079;-67
2021/11/08 01:08:25;;;;;;;;;;;332.80;2022.40;;;;;;5073883;28;19911;-67
2021/11/08 01:10:51;;;;;;;;;;;332.80;2022.40;;;;;;5074026;28;19909;-67
2021/11/08 01:13:16;;;;;;;;;;;332.80;2022.40;;;;;;5074095;28;19904;-67
2021/11/08 01:15:42;;;;;;;;;;;332.80;2022.40;;;;;;5074377;28;20289;-63
2021/11/08 01:18:08;;;;;;;;;;;332.80;2048.00;;;;;;5073922;28;19904;-63
2021/11/08 01:20:35;;;;;;;;;;;332.80;2022.40;;;;;;5074563;28;19934;-67
2021/11/08 01:23:03;;;;;;;;;;;332.80;2022.40;;;;;;5074017;28;19904;-66
2021/11/08 01:25:30;;;;;;;;;;;332.80;2048.00;;;;;;5073743;28;19954;-67
2021/11/08 01:27:58;;;;;;;;;;;332.80;2022.40;;;;;;5073892;28;19931;-66
2021/11/08 01:30:25;;;;;;;;;;;332.80;2022.40;;;;;;5073799;28;19912;-67
2021/11/08 01:32:56;;;;;;;;;;;332.80;2022.40;;;;;;5073889;28;19904;-67
2021/11/08 01:35:29;;;;;;;;;;;332.80;2022.40;;;;;;5073723;28;19966;-67
2021/11/08 01:38:10;;;;;;;;;;;332.80;2022.40;;;;;;5073516;28;19904;-66
2021/11/08 01:40:37;;;;;;;;;;;332.80;2022.40;;;;;;5073609;28;19908;-67
2021/11/08 01:43:02;;;;;;;;;;;332.80;2022.40;;;;;;5073744;28;19909;-67
2021/11/08 01:45:28;;;;;;;;;;;332.80;2022.40;;;;;;5073726;28;19958;-67
2021/11/08 01:47:54;;;;;;;;;;;332.80;2048.00;;;;;;5073440;28;19916;-62
2021/11/08 01:50:20;;;;;;;;;;;332.80;2022.40;;;;;;5073066;28;19908;-67
2021/11/08 01:52:45;;;;;;;;;;;332.80;2022.40;;;;;;5071877;28;19904;-67
2021/11/08 01:55:11;;;;;;;;;;;332.90;2048.00;;;;;;5073497;28;19912;-67
2021/11/08 01:57:37;;;;;;;;;;;332.80;2022.40;;;;;;5073861;28;19912;-67
2021/11/08 02:00:06;;;;;;;;;;;332.80;2022.40;;;;;;5073575;28;19940;-66
2021/11/08 02:02:33;;;;;;;;;;;332.90;2048.00;;;;;;5073457;28;19954;-63
2021/11/08 02:04:59;;;;;;;;;;;332.80;2022.40;;;;;;5073630;28;19962;-67
2021/11/08 02:07:25;;;;;;;;;;;308.10;1996.80;;;;;;5073688;28;20373;-67
2021/11/08 02:09:51;;;;;;;;;;;332.90;2022.40;;;;;;5077038;28;19911;-67
2021/11/08 02:12:16;;;;;;;;;;;332.90;2022.40;;;;;;5077112;28;19904;-67
2021/11/08 02:14:42;;;;;;;;;;;332.90;2022.40;;;;;;5077222;28;19934;-66
2021/11/08 02:17:08;;;;;;;;;;;332.90;2048.00;;;;;;5076615;28;19904;-67
2021/11/08 02:19:34;;;;;;;;;;;332.80;2022.40;;;;;;5076954;28;19908;-67
2021/11/08 02:22:02;;;;;;;;;;;332.80;2022.40;;;;;;5076670;28;20358;-67
2021/11/08 02:24:28;;;;;;;;;;;332.80;2048.00;;;;;;5077307;28;20300;-67
2021/11/08 02:26:54;;;;;;;;;;;332.90;2022.40;;;;;;5076333;28;19983;-67
2021/11/08 02:29:20;;;;;;;;;;;332.90;2022.40;;;;;;5076832;28;19908;-67
2021/11/08 02:31:46;;;;;;;;;;;332.90;2022.40;;;;;;5076787;28;19904;-67
2021/11/08 02:34:11;;;;;;;;;;;332.90;2022.40;;;;;;5076785;28;19915;-67
2021/11/08 02:36:41;;;;;;;;;;;332.90;2022.40;;;;;;5076428;28;20316;-63
2021/11/08 02:39:11;;;;;;;;;;;333.00;2022.40;;;;;;5075193;28;19940;-67
2021/11/08 02:41:37;;;;;;;;;;;333.00;2048.00;;;;;;5076343;28;19904;-66
2021/11/08 02:44:04;;;;;;;;;;;332.90;2022.40;;;;;;5076604;28;20022;-66
2021/11/08 02:46:31;;;;;;;;;;;333.00;2022.40;;;;;;5076464;28;19905;-67
2021/11/08 02:48:58;;;;;;;;;;;332.90;2048.00;;;;;;5076047;28;19946;-67
2021/11/08 02:51:26;;;;;;;;;;;332.90;2022.40;;;;;;5076078;28;20042;-66
2021/11/08 02:53:57;;;;;;;;;;;332.90;2048.00;;;;;;5075143;28;20266;-66
2021/11/08 02:56:23;;;;;;;;;;;332.90;2022.40;;;;;;5076081;28;20328;-66
2021/11/08 02:58:49;;;;;;;;;;;333.00;2022.40;;;;;;5076787;28;19986;-67
2021/11/08 03:01:17;;;;;;;;;;;333.00;2048.00;;;;;;5076043;28;19904;-67
2021/11/08 03:03:50;;;;;;;;;;;333.00;2048.00;;;;;;5076106;28;20018;-66
2021/11/08 03:06:30;;;;;;;;;;;332.90;2022.40;;;;;;5075885;28;19911;-66
2021/11/08 03:08:56;;;;;;;;;;;333.00;2048.00;;;;;;5075851;28;19932;-63
2021/11/08 03:11:23;;;;;;;;;;;333.00;2048.00;;;;;;5075583;28;19904;-66
2021/11/08 03:14:00;;;;;;;;;;;308.10;1996.80;;;;;;5076042;28;19904;-67
2021/11/08 03:16:38;;;;;;;;;;;332.90;2048.00;;;;;;5075588;28;19919;-67
2021/11/08 03:19:14;;;;;;;;;;;333.00;2048.00;;;;;;5075291;28;19986;-66
2021/11/08 03:21:41;;;;;;;;;;;332.90;2022.40;;;;;;5076057;28;19940;-66
2021/11/08 03:24:07;;;;;;;;;;;333.00;2022.40;;;;;;5075694;28;19932;-63
2021/11/08 03:28:59;;;;;;;;;;;332.90;2022.40;;;;;;5075744;28;19908;-67
2021/11/08 03:31:26;;;;;;;;;;;333.00;2048.00;;;;;;5075461;28;19908;-67
2021/11/08 03:33:52;;;;;;;;;;;333.00;2048.00;;;;;;5075783;28;19913;-66
2021/11/08 03:36:18;;;;;;;;;;;332.90;2022.40;;;;;;5075541;28;19943;-66
2021/11/08 03:38:44;;;;;;;;;;;333.00;2048.00;;;;;;5075458;28;20274;-66
2021/11/08 03:41:09;;;;;;;;;;;333.00;2048.00;;;;;;5075437;28;19911;-66
2021/11/08 03:43:35;;;;;;;;;;;332.90;2022.40;;;;;;5075268;28;19912;-63
2021/11/08 03:46:02;;;;;;;;;;;333.00;2048.00;;;;;;5075363;28;19990;-62
2021/11/08 03:48:28;;;;;;;;;;;333.00;2048.00;;;;;;5074898;28;20297;-66
2021/11/08 03:50:54;;;;;;;;;;;333.00;2022.40;;;;;;5075225;28;19911;-65
2021/11/08 03:53:20;;;;;;;;;;;333.00;2048.00;;;;;;5075164;28;20283;-67
2021/11/08 03:55:46;;;;;;;;;;;333.00;2073.60;;;;;;5074880;28;20004;-67
2021/11/08 03:58:11;;;;;;;;;;;333.00;2073.60;;;;;;5075042;28;19931;-69
2021/11/08 04:00:37;;;;;;;;;;;333.00;2048.00;;;;;;5074773;28;20281;-67
2021/11/08 04:03:04;;;;;;;;;;;333.00;2099.20;;;;;;5074859;28;19904;-63
2021/11/08 04:05:32;;;;;;;;;;;333.00;2073.60;;;;;;5075002;28;20307;-66
2021/11/08 04:08:00;;;;;;;;;;;333.10;2048.00;;;;;;5074965;28;19946;-66
2021/11/08 04:10:25;;;;;;;;;;;333.10;2048.00;;;;;;5074721;28;19999;-66
2021/11/08 04:12:52;;;;;;;;;;;333.10;2048.00;;;;;;5074677;28;19936;-65
2021/11/08 04:15:19;;;;;;;;;;;333.10;2048.00;;;;;;5074742;28;19958;-66
2021/11/08 04:17:46;;;;;;;;;;;333.10;2048.00;;;;;;5074608;28;19919;-65
2021/11/08 04:20:13;;;;;;;;;;;333.10;2048.00;;;;;;5074807;28;19904;-66
2021/11/08 04:22:39;;;;;;;;;;;333.00;2048.00;;;;;;5074889;28;19946;-66
2021/11/08 04:25:05;;;;;;;;;;;333.10;2048.00;;;;;;5074603;28;20352;-66
2021/11/08 04:27:35;;;;;;;;;;;333.00;2048.00;;;;;;5074629;28;19905;-66
2021/11/08 04:30:01;;;;;;;;;;;333.00;2048.00;;;;;;5074313;28;20265;-64
2021/11/08 04:32:31;;;;;;;;;;;333.00;2048.00;;;;;;5073784;28;19904;-66
2021/11/08 04:35:05;;;;;;;;;;;333.10;2048.00;;;;;;5074299;28;19908;-64
2021/11/08 04:40:22;;;;;;;;;;;333.10;2048.00;;;;;;5074422;28;19905;-67
2021/11/08 04:42:55;;;;;;;;;;;333.10;2048.00;;;;;;5074496;28;19959;-67
2021/11/08 04:45:45;;;;;;;;;;;333.10;2048.00;;;;;;5074274;28;20317;-67
2021/11/08 04:51:01;;;;;;;;;;;333.00;2048.00;;;;;;5074340;28;20373;-65
2021/11/08 05:20:58;;;;;;;;;;;333.00;2048.00;;;;;;5032233;28;20274;-66
2021/11/08 05:31:32;;;;;;;;;;;333.00;2073.60;;;;;;5031807;28;19980;-64
2021/11/08 05:33:58;;;;;;;;;;;333.00;2073.60;;;;;;5064047;28;19905;-66
2021/11/08 05:36:23;;;;;;;;;;;333.00;2073.60;;;;;;5073665;28;19919;-66
2021/11/08 05:38:49;;;;;;;;;;;333.00;2073.60;;;;;;5072505;28;19951;-66
2021/11/08 05:41:14;;;;;;;;;;;333.00;2073.60;;;;;;5073661;28;19930;-66
2021/11/08 05:43:40;;;;;;;;;;;333.00;2073.60;;;;;;5076207;28;19904;-67
2021/11/08 05:46:06;;;;;;;;;;;333.00;2073.60;;;;;;5077616;28;20349;-66
2021/11/08 05:48:31;;;;;;;;;;;333.00;2073.60;;;;;;5076663;28;19920;-66
2021/11/08 05:50:57;;;;;;;;;;;332.90;2099.20;;;;;;5077295;28;19984;-66
2021/11/08 05:53:22;;;;;;;;;;;333.00;2099.20;;;;;;5077384;28;19904;-66
2021/11/08 05:55:56;;;;;;;;;;;333.00;2073.60;;;;;;5077231;28;19920;-66
2021/11/08 06:50:18;;;;;;;;;;;333.20;2048.00;;;;;;5076468;28;19990;-66
2021/11/08 06:52:49;;;;;;;;;;;333.20;2073.60;;;;;;5076426;28;19912;-65
2021/11/08 06:55:15;;;;;;;;;;;333.20;2048.00;;;;;;5075042;28;19908;-66
2021/11/08 06:57:52;;;;;;;;;;;333.20;2073.60;;;;;;5076392;28;20011;-66
2021/11/08 07:00:19;;;;;;;;;;;333.20;2073.60;;;;;;5076138;28;19995;-67
2021/11/08 07:02:45;;;;;;;;;;;333.20;2073.60;;;;;;5075894;28;19904;-67
2021/11/08 07:05:10;;;;;;;;;;;333.20;2048.00;;;;;;5076103;28;19957;-67
2021/11/08 07:07:36;;;;;;;;;;;333.30;2048.00;;;;;;5076203;28;19927;-67
2021/11/08 07:10:03;;;;;;;;;;;333.30;2048.00;;;;;;5076291;28;20255;-67
2021/11/08 07:12:28;;;;;;;;;;;333.20;2048.00;;;;;;5076084;28;20392;-65
2021/11/08 07:14:54;;;;;;;;;;;333.30;2048.00;;;;;;5075907;28;19948;-67
2021/11/08 07:17:19;;;;;;;;;;;333.20;2073.60;;;;;;5075995;28;20373;-66
2021/11/08 07:19:45;;;;;;;;;;;333.20;2073.60;;;;;;5076188;28;19986;-66
2021/11/08 07:22:11;;;;;;;;;;;333.20;2073.60;;;;;;5075626;28;20293;-66
2021/11/08 07:24:36;;;;;;;;;;;333.20;2073.60;;;;;;5075635;28;19904;-67
2021/11/08 07:27:02;;;;;;;;;;;333.20;2073.60;;;;;;5075507;28;19955;-66
2021/11/08 07:29:28;;;;;;;;;;;333.20;2073.60;;;;;;5075770;28;19904;-66
2021/11/08 07:31:54;;;;;;;;;;;333.20;2073.60;;;;;;5075533;28;19905;-66
2021/11/08 07:34:20;;;;;;;;;;;333.20;2073.60;;;;;;5075600;28;19905;-66
2021/11/08 07:36:46;;;;;;;;;;;333.20;2073.60;;;;;;5075428;28;19913;-66
2021/11/08 07:39:11;;;;;;;;;;;333.20;2073.60;;;;;;5075582;28;19905;-67
2021/11/08 07:41:37;;;;;;;;;;;333.20;2073.60;;;;;;5075257;28;20324;-67
2021/11/08 07:44:03;;;;;;;;;;;333.20;2073.60;;;;;;5075179;28;19905;-66
2021/11/08 07:46:28;;;;;;;;;;;333.20;2073.60;;;;;;5075430;28;19981;-67
2021/11/08 07:48:54;;;;;;;;;;;333.20;2073.60;;;;;;5075081;28;20405;-66
2021/11/08 07:51:20;;;;;;;;;;;333.20;2073.60;;;;;;5074615;28;20282;-66
2021/11/08 07:53:46;;;;;;;;;;;333.20;2073.60;;;;;;5074700;28;19905;-66
2021/11/08 07:56:12;;;;;;;;;;;333.20;2073.60;;;;;;5074484;28;19924;-66
2021/11/08 07:58:37;;;;;;;;;;;333.20;2073.60;;;;;;5075135;28;19904;-67
2021/11/08 08:01:03;;;;;;;;;;;333.20;2073.60;;;;;;5075160;28;19904;-66
2021/11/08 08:03:29;;;;;;;;;;;333.10;2073.60;;;;;;5075013;28;20346;-67
2021/11/08 08:05:55;;;;;;;;;;;333.10;2099.20;;;;;;5074765;28;20270;-66
2021/11/08 08:08:21;;;;;;;;;;;333.10;2099.20;;;;;;5074660;28;19905;-65
2021/11/08 08:10:51;;;;;;;;;;;333.10;2073.60;;;;;;5074651;28;20030;-66
2021/11/08 08:13:19;;;;;;;;;;;333.20;2073.60;;;;;;5074619;28;20003;-67
2021/11/08 08:15:45;;;;;;;;;;;333.20;2073.60;;;;;;5074798;28;20289;-66
2021/11/08 08:18:11;;;;;;;;;;;333.10;2073.60;;;;;;5074867;28;19904;-66
2021/11/08 08:20:37;;;;;;;;;;;333.10;2073.60;;;;;;5074638;28;20002;-66
2021/11/08 08:23:02;;;;;;;;;;;333.10;2073.60;;;;;;5074732;28;19908;-66
2021/11/08 08:25:28;;;;;;;;;;;333.10;2073.60;;;;;;5074610;28;19904;-66
2021/11/08 08:27:58;;;;;;;;;;;333.10;2073.60;;;;;;5074622;28;19912;-66
2021/11/08 08:30:23;;;;;;;;;;;333.20;2073.60;;;;;;5074416;28;19929;-66
2021/11/08 08:32:49;;;;;;;;;;;333.20;2073.60;;;;;;5074315;28;19914;-66
2021/11/08 08:35:15;;;;;;;;;;;333.20;2073.60;;;;;;5082849;28;20077;-66
2021/11/08 08:37:41;;;;;;;;;;;333.20;2073.60;;;;;;5103123;28;20261;-65
2021/11/08 08:40:07;;;;;;;;;;;333.20;2073.60;;;;;;5114882;28;19904;-67
2021/11/08 08:42:33;;;;;;;;;;;333.20;2073.60;;;;;;5114987;28;20377;-67
2021/11/08 08:44:58;;;;;;;;;;;333.20;2073.60;;;;;;5114754;28;19910;-67
2021/11/08 08:47:24;;;;;;;;;;;333.20;2073.60;;;;;;5114611;28;19915;-67
2021/11/08 08:49:51;;;;;;;;;;;333.20;2073.60;;;;;;5114853;28;20292;-67
2021/11/08 08:52:17;;;;;;;;;;;333.20;2048.00;;;;;;5115376;28;19904;-66
2021/11/08 08:54:43;;;;;;;;;;;333.20;2048.00;;;;;;5114720;28;19910;-67
2021/11/08 08:57:09;;;;;;;;;;;333.20;2048.00;;;;;;5113177;28;19911;-68
2021/11/08 08:59:35;;;;;;;;;;;333.20;2048.00;;;;;;5085075;28;19908;-68
2021/11/08 09:02:01;;;;;;;;;;;333.20;2073.60;;;;;;5074142;28;19904;-67
2021/11/08 09:04:27;;;;;;;;;;;333.20;2048.00;;;;;;5074256;28;19904;-67
2021/11/08 09:06:52;;;;;;;;;;;333.20;2048.00;;;;;;5074126;28;19917;-68
2021/11/08 09:09:18;;;;;;;;;;;333.20;2073.60;;;;;;5064119;28;20328;-66
2021/11/08 09:11:44;;;;;;;;;;;333.20;2048.00;;;;;;5073642;28;19977;-63
2021/11/08 09:14:09;;;;;;;;;;;333.10;2073.60;;;;;;5073961;28;19904;-63
2021/11/08 09:16:35;;;;;;;;;;;333.10;2048.00;;;;;;5073479;28;20281;-69
2021/11/08 09:19:00;;;;;;;;;;;333.10;2048.00;;;;;;5076833;28;19943;-72
2021/11/08 09:21:27;;;;;;;;;;;333.30;2304.00;;;;;;5077730;28;19904;-67
2021/11/08 09:23:55;;;;;;;;;;;333.50;2252.80;;;;;;5077438;28;19912;-63
2021/11/08 09:26:21;;;;;;;;;;;333.50;2048.00;;;;;;5077840;28;19904;-65
2021/11/08 09:28:47;;;;;;;;;;;333.50;2022.40;;;;;;5077840;28;19905;-62
2021/11/08 09:31:13;;;;;;;;;;;333.40;2022.40;;;;;;5077176;28;19905;-64
2021/11/08 09:33:38;;;;;;;;;;;333.30;2022.40;;;;;;5077993;28;19904;-65
2021/11/08 09:36:08;;;;;;;;;;;333.30;2048.00;;;;;;5077506;28;20441;-63
2021/11/08 09:38:39;;;;;;;;;;;333.30;2022.40;;;;;;5077241;28;19961;-64
2021/11/08 09:41:10;;;;;;;;;;;333.20;2022.40;;;;;;5077738;28;19904;-64
2021/11/08 09:43:36;;;;;;;;;;;333.20;2022.40;;;;;;5077336;28;19911;-62
2021/11/08 09:46:02;;;;;;;;;;;333.20;2048.00;;;;;;5092713;28;19908;-64
2021/11/08 09:48:28;;;;;;;;;;;333.20;2022.40;;;;;;5094924;28;19916;-62
2021/11/08 09:50:54;;;;;;;;;;;333.10;2022.40;;;;;;5098786;28;20269;-63
2021/11/08 09:53:20;;;;;;;;;;;333.10;2048.00;;;;;;5097254;28;19905;-64
2021/11/08 09:55:46;;;;;;;;;;;333.10;2022.40;;;;;;5094945;28;19911;-63
2021/11/08 09:58:13;;;;;;;;;;;333.00;2022.40;;;;;;5096665;28;19990;-62
2021/11/08 10:00:38;;;;;;;;;;;333.00;2022.40;;;;;;5097009;28;19904;-64
2021/11/08 10:03:06;;;;;;;;;;;333.10;2022.40;;;;;;5095273;28;19910;-64
2021/11/08 10:05:33;;;;;;;;;;;333.00;1996.80;;;;;;5096134;28;19911;-61
2021/11/08 10:07:59;;;;;;;;;;;333.00;2022.40;;;;;;5096615;28;19911;-64
2021/11/08 10:10:26;;;;;;;;;;;333.00;2022.40;;;;;;5094643;28;19990;-63
2021/11/08 10:12:54;;;;;;;;;;;333.00;1996.80;;;;;;5096013;28;19904;-64
2021/11/08 10:15:20;;;;;;;;;;;333.00;1996.80;;;;;;5087659;28;20277;-65
2021/11/08 10:17:46;;;;;;;;;;;333.00;1996.80;;;;;;5076782;28;19995;-64
2021/11/08 10:20:17;;;;;;;;;;;333.00;2022.40;;;;;;5076819;28;19911;-63
2021/11/08 10:22:42;;;;;;;;;;;333.00;2022.40;;;;;;5076864;28;19915;-62
2021/11/08 10:25:08;;;;;;;;;;;333.00;2022.40;;;;;;5075286;28;19904;-63
2021/11/08 10:28:00;;;;;;;;;;;333.00;1996.80;;;;;;5076465;28;19915;-62
2021/11/08 10:30:28;;;;;;;;;;;333.00;2022.40;;;;;;5070807;28;19912;-61
2021/11/08 10:33:30;;;;;;;;;;;333.00;1996.80;;;;;;5076143;28;19916;-64
2021/11/08 10:35:59;;;;;;;;;;;333.00;2022.40;;;;;;4995051;28;19913;-64
2021/11/08 10:38:30;;;;;;;;;;;333.00;1996.80;;;;;;4994665;28;19912;-65
2021/11/08 10:40:58;;;;;;;;;;;333.00;2022.40;;;;;;4994344;28;20387;-63
2021/11/08 10:43:32;;;;;;;;;;;333.00;1996.80;;;;;;4995128;28;19981;-64
2021/11/08 10:45:58;;;;;;;;;;;333.00;1996.80;;;;;;4994766;28;19905;-64
2021/11/08 10:48:28;;;;;;;;;;;333.00;1996.80;;;;;;4994782;28;19917;-61
2021/11/08 10:50:54;;;;;;;;;;;333.00;2022.40;;;;;;4995281;28;19906;-61
2021/11/08 10:53:20;;;;;;;;;;;333.00;1996.80;;;;;;4994755;28;19914;-63
2021/11/08 10:55:55;;;;;;;;;;;333.00;1996.80;;;;;;4994869;28;19913;-62
2021/11/08 10:58:22;;;;;;;;;;;333.00;1996.80;;;;;;4994716;28;19910;-62
2021/11/08 11:00:49;;;;;;;;;;;333.00;1996.80;;;;;;4994536;28;20367;-64
2021/11/08 11:03:15;;;;;;;;;;;333.10;1996.80;;;;;;4998952;28;20361;-63
2021/11/08 11:05:42;;;;;;;;;;;333.00;1996.80;;;;;;5003706;28;19906;-64
2021/11/08 11:08:14;;;;;;;;;;;333.00;1996.80;;;;;;4999533;28;20432;-64
2021/11/08 11:10:42;;;;;;;;;;;333.00;1996.80;;;;;;5017971;28;19915;-62
2021/11/08 11:13:12;;;;;;;;;;;333.00;1996.80;;;;;;5106108;28;20349;-64
2021/11/08 11:15:40;;;;;;;;;;;333.00;1996.80;;;;;;5098775;28;20369;-63
2021/11/08 11:18:07;;;;;;;;;;;333.10;1996.80;;;;;;5092957;28;20392;-63
2021/11/08 11:20:36;;;;;;;;;;;333.10;1971.20;;;;;;5094376;28;19903;-64
2021/11/08 11:23:10;;;;;;;;;;;333.10;1996.80;;;;;;5094762;28;20313;-62
2021/11/08 11:25:37;;;;;;;;;;;333.00;1996.80;;;;;;5096752;28;19953;-64
2021/11/08 11:28:05;;;;;;;;;;;333.00;1971.20;;;;;;5094322;28;19980;-63
2021/11/08 11:30:34;;;;;;;;;;;333.00;1971.20;;;;;;5092212;28;19915;-62
2021/11/08 11:33:11;;;;;;;;;;;333.00;1996.80;;;;;;5094878;28;19914;-64
2021/11/08 11:35:49;;;;;;;;;;;333.00;1996.80;;;;;;5077081;28;19916;-65
2021/11/08 11:38:24;;;;;;;;;;;333.10;1996.80;;;;;;5094715;28;20305;-64
2021/11/08 11:40:55;;;;;;;;;;;333.10;1971.20;;;;;;5094074;28;19929;-62
2021/11/08 11:43:26;;;;;;;;;;;333.10;1971.20;;;;;;5097396;28;19903;-63
2021/11/08 11:45:53;;;;;;;;;;;333.10;1971.20;;;;;;5090510;28;19965;-63
2021/11/08 11:48:20;;;;;;;;;;;333.10;1971.20;;;;;;5094975;28;19980;-64
2021/11/08 11:50:46;;;;;;;;;;;333.10;1971.20;;;;;;5094230;28;19908;-63
2021/11/08 11:53:12;;;;;;;;;;;333.10;1971.20;;;;;;5092386;28;20281;-63
2021/11/08 11:55:39;;;;;;;;;;;333.10;1971.20;;;;;;5096214;28;19917;-61
2021/11/08 11:58:04;;;;;;;;;;;333.10;1971.20;;;;;;5095688;28;19912;-62
2021/11/08 12:00:31;;;;;;;;;;;333.10;1945.60;;;;;;5094224;28;19915;-64
2021/11/08 12:02:58;;;;;;;;;;;333.10;1945.60;;;;;;5093592;28;19908;-64
2021/11/08 12:05:25;;;;;;;;;;;333.10;1971.20;;;;;;5093776;28;19904;-64
2021/11/08 12:07:52;;;;;;;;;;;333.10;1945.60;;;;;;5089901;28;19914;-62
2021/11/08 12:10:18;;;;;;;;;;;333.10;1971.20;;;;;;5096179;28;19904;-61
2021/11/08 12:12:43;;;;;;;;;;;333.10;1971.20;;;;;;5092302;28;19977;-64
2021/11/08 12:15:09;;;;;;;;;;;333.20;1971.20;;;;;;5094422;28;19908;-64
2021/11/08 12:17:40;;;;;;;;;;;333.20;1971.20;;;;;;5094222;28;19931;-63
2021/11/08 12:20:07;;;;;;;;;;;333.20;1945.60;;;;;;5094454;28;19904;-61
2021/11/08 12:22:33;;;;;;;;;;;333.20;1945.60;;;;;;5094409;28;19904;-63
2021/11/08 12:25:01;;;;;;;;;;;333.20;1945.60;;;;;;5094414;28;19927;-62
2021/11/08 12:27:37;;;;;;;;;;;333.20;1920.00;;;;;;5094127;28;19911;-64
2021/11/08 12:30:10;;;;;;;;;;;333.20;1920.00;;;;;;5092378;28;20358;-64
2021/11/08 12:32:49;;;;;;;;;;;333.20;1920.00;;;;;;5091220;28;19958;-63
2021/11/08 12:35:21;;;;;;;;;;;333.20;1945.60;;;;;;5092972;28;19912;-63
2021/11/08 12:37:47;;;;;;;;;;;333.20;1920.00;;;;;;5091468;28;19904;-62
2021/11/08 12:40:13;;;;;;;;;;;333.20;1945.60;;;;;;5094056;28;19953;-62
2021/11/08 12:42:42;;;;;;;;;;;333.20;1920.00;;;;;;5088886;28;19949;-63
2021/11/08 12:45:10;;;;;;;;;;;333.20;1920.00;;;;;;5091513;28;19907;-64
2021/11/08 12:47:36;;;;;;;;;;;333.30;1920.00;;;;;;5114702;28;19915;-62
2021/11/08 12:50:02;;;;;;;;;;;333.30;1920.00;;;;;;5114838;28;20118;-64
2021/11/08 12:52:31;;;;;;;;;;;333.30;1920.00;;;;;;5113892;28;19904;-63
2021/11/08 12:55:10;;;;;;;;;;;333.30;1920.00;;;;;;5114531;28;19903;-63
2021/11/08 12:57:37;;;;;;;;;;;333.30;1920.00;;;;;;5114711;28;19903;-63
2021/11/08 13:00:13;;;;;;;;;;;333.30;1920.00;;;;;;5114633;28;20301;-64
2021/11/08 13:02:40;;;;;;;;;;;333.30;1945.60;;;;;;5114579;28;20365;-63
2021/11/08 13:05:07;;;;;;;;;;;333.30;1945.60;;;;;;5114694;28;19942;-64
2021/11/08 13:07:37;;;;;;;;;;;333.30;1920.00;;;;;;5114513;28;19907;-64
2021/11/08 13:10:05;;;;;;;;;;;333.30;1920.00;;;;;;5114576;28;20061;-64
2021/11/08 13:12:30;;;;;;;;;;;333.30;1945.60;;;;;;5114250;28;19927;-64
2021/11/08 13:15:19;;;;;;;;;;;333.30;1920.00;;;;;;5114512;28;20231;-63
2021/11/08 13:17:46;;;;;;;;;;;333.30;1920.00;;;;;;5012386;28;19945;-65
2021/11/08 13:20:12;;;;;;;;;;;333.30;1894.40;;;;;;5012225;28;19912;-63
2021/11/08 13:22:40;;;;;;;;;;;333.30;1920.00;;;;;;5012200;28;20000;-63
2021/11/08 13:25:08;;;;;;;;;;;333.30;1920.00;;;;;;5012109;28;19909;-63
2021/11/08 13:27:35;;;;;;;;;;;333.30;1920.00;;;;;;5011906;28;19963;-64
2021/11/08 13:30:02;;;;;;;;;;;333.30;1894.40;;;;;;5012352;28;19956;-63
2021/11/08 13:32:29;;;;;;;;;;;333.30;1920.00;;;;;;5012078;28;19905;-63
2021/11/08 13:35:15;;;;;;;;;;;333.30;1894.40;;;;;;5012480;28;20283;-64
2021/11/08 13:37:41;;;;;;;;;;;333.30;1894.40;;;;;;5011686;28;20012;-63
2021/11/08 13:40:21;;;;;;;;;;;333.30;1894.40;;;;;;5011863;28;20263;-63
2021/11/08 13:42:47;;;;;;;;;;;333.30;1920.00;;;;;;5011993;28;19912;-64
2021/11/08 13:45:13;;;;;;;;;;;333.30;1894.40;;;;;;5011903;28;20282;-62
2021/11/08 13:47:44;;;;;;;;;;;333.30;1920.00;;;;;;5011387;28;19921;-62
2021/11/08 13:50:15;;;;;;;;;;;333.30;1920.00;;;;;;4995580;28;19956;-63
2021/11/08 13:52:41;;;;;;;;;;;333.30;1920.00;;;;;;5011970;28;19952;-63
2021/11/08 13:55:11;;;;;;;;;;;333.30;1920.00;;;;;;5079344;28;19904;-64
2021/11/08 13:57:43;;;;;;;;;;;333.20;1920.00;;;;;;5114071;28;19957;-64
2021/11/08 14:00:14;;;;;;;;;;;333.30;1920.00;;;;;;5114064;28;19904;-63
2021/11/08 14:02:39;;;;;;;;;;;333.20;1945.60;;;;;;5114273;28;20242;-63
2021/11/08 14:05:05;;;;;;;;;;;333.30;1920.00;;;;;;5116933;28;19987;-64
2021/11/08 14:07:33;;;;;;;;;;;333.20;1945.60;;;;;;5117771;28;19910;-64
2021/11/08 14:09:58;;;;;;;;;;;333.30;1945.60;;;;;;5117705;28;19904;-63
2021/11/08 14:12:28;;;;;;;;;;;333.30;1945.60;;;;;;5117664;28;19910;-64
2021/11/08 14:14:55;;;;;;;;;;;333.30;1945.60;;;;;;5117917;28;19904;-63
2021/11/08 14:17:22;;;;;;;;;;;333.20;1945.60;;;;;;5117709;28;20334;-64
2021/11/08 14:19:51;;;;;;;;;;;333.30;1945.60;;;;;;5117516;28;19903;-63
2021/11/08 14:22:17;;;;;;;;;;;333.30;1945.60;;;;;;5117705;28;19953;-62
2021/11/08 14:24:46;;;;;;;;;;;333.30;1945.60;;;;;;5117569;28;19946;-64
2021/11/08 14:27:13;;;;;;;;;;;333.30;1945.60;;;;;;5117404;28;19904;-63
2021/11/08 14:29:39;;;;;;;;;;;333.30;1945.60;;;;;;5117430;28;20412;-62
2021/11/08 14:32:06;;;;;;;;;;;333.30;1920.00;;;;;;5117734;28;19968;-64
2021/11/08 14:34:36;;;;;;;;;;;333.30;1920.00;;;;;;5117184;28;19904;-64
2021/11/08 14:37:10;;;;;;;;;;;333.20;1920.00;;;;;;5117231;28;19918;-64
2021/11/08 14:39:39;;;;;;;;;;;333.20;1920.00;;;;;;5099081;28;19918;-63
2021/11/08 14:42:05;;;;;;;;;;;333.20;1920.00;;;;;;5117314;28;19911;-64
2021/11/08 14:44:40;;;;;;;;;;;333.20;1920.00;;;;;;5117180;28;19904;-63
2021/11/08 14:47:25;;;;;;;;;;;333.20;1920.00;;;;;;5116670;28;19907;-64
2021/11/08 14:49:52;;;;;;;;;;;333.20;1920.00;;;;;;5117357;28;19918;-64
2021/11/08 14:52:17;;;;;;;;;;;333.20;1920.00;;;;;;5116894;28;19904;-64
2021/11/08 14:54:50;;;;;;;;;;;333.20;1920.00;;;;;;5098375;28;19933;-64
2021/11/08 14:57:16;;;;;;;;;;;333.20;1920.00;;;;;;5116516;28;19919;-63
2021/11/08 14:59:41;;;;;;;;;;;333.20;1920.00;;;;;;5116757;28;19949;-62
2021/11/08 15:02:07;;;;;;;;;;;333.20;1920.00;;;;;;5116585;28;19908;-62
2021/11/08 15:04:32;;;;;;;;;;;333.20;1920.00;;;;;;5104141;28;19958;-63
2021/11/08 15:07:01;;;;;;;;;;;333.10;1920.00;;;;;;5093046;28;19913;-63
2021/11/08 15:09:36;;;;;;;;;;;333.20;1920.00;;;;;;5092667;28;19962;-62
2021/11/08 15:12:11;;;;;;;;;;;333.20;1920.00;;;;;;5096447;28;19907;-62
2021/11/08 15:14:44;;;;;;;;;;;333.20;1920.00;;;;;;5096165;28;19941;-62
2021/11/08 15:17:09;;;;;;;;;;;333.20;1920.00;;;;;;5095279;28;19922;-62
2021/11/08 15:19:43;;;;;;;;;;;333.10;1920.00;;;;;;5095889;28;19903;-62
2021/11/08 15:22:09;;;;;;;;;;;333.10;1920.00;;;;;;5092893;28;19908;-62